Lake Mills, WI (53551)

1:58 PM CST on December 07, 2016 (GMT -0600)
Cambridge | | Change Station

Elev 883 ft 43.00 °N, 89.01 °W | Updated 20 seconds ago

Clear
Clear
25.7 °F
Feels Like 17 °F
N
8.1
Wind Variable Wind from West

Today
High -- | Low -- °F
--% Chance of Precip.
Yesterday
High -- | Low -- °F
Precip. -- in
Pressure 30.01 in
Visibility 10.0 miles
Clouds Clear
Windchill 17 °F
Dew Point 16 °F
Humidity 66%
Rainfall Not available.
Snow Depth Not available.
7:14 AM 4:20 PM
First Quarter, 55% visible
METAR KRYV 071935Z AUTO 24009KT 10SM CLR M05/M09 A3001 RMK AO2 T10501088
Pressure 30.01 in
Visibility 10.0 miles
Clouds Clear
Windchill 17 °F
Dew Point 16 °F
Humidity 66%
Rainfall Not available.
Snow Depth Not available.
7:14 AM 4:20 PM
First Quarter, 55% visible
METAR KRYV 071935Z AUTO 24009KT 10SM CLR M05/M09 A3001 RMK AO2 T10501088

10-Day Weather Forecast

Almanac

Astronomy

Dec. 07, 2016 Rise Set
Actual Time
Civil Twilight
Nautical Twilight
Astronomical Twilight
Moon
Length of Visible Light
Length of Day
Tomorrow will be .
, % of the Moon is Illuminated

Today's Extremes

State Highs State Lows

Community

WunderPhotos

Upload Photos

1,956,164 photos uploaded!

WunderBlog® & News

Nearby

Air Quality

  Air Quality AQ Index Pollutant
Not available.

Snow Depth

Station Depth Elevation

Earthquake Activity

City Distance Mag. Time & Date
Minimum magnitude displayed is 2.5.

Coastal Water Temperatures

Place Temperature

Stations

Nearby Weather Stations

Station Location Temp. Windchill Dew Point Humidity Wind Precip. Elev Updated Type
                   

Watches & Warnings

There are currently no watches in effect.